createdAt,value
2023-05-12T00:01:24.911Z,97.87
2023-05-12T00:03:54.394Z,97.77
2023-05-12T00:06:21.564Z,97.83
2023-05-12T00:08:48.596Z,97.62
2023-05-12T00:11:15.676Z,97.64
2023-05-12T00:13:42.708Z,97.62
2023-05-12T00:16:10.029Z,97.56
2023-05-12T00:18:37.040Z,97.57
2023-05-12T00:21:04.035Z,97.67
2023-05-12T00:23:33.361Z,97.60
2023-05-12T00:26:00.310Z,97.54
2023-05-12T00:28:29.657Z,97.75
2023-05-12T00:31:02.887Z,97.75
2023-05-12T00:33:31.264Z,97.94
2023-05-12T00:36:01.265Z,97.88
2023-05-12T00:38:28.134Z,97.84
2023-05-12T00:40:55.069Z,97.84
2023-05-12T00:43:21.946Z,97.94
2023-05-12T00:45:48.998Z,97.84
2023-05-12T00:48:15.728Z,97.80
2023-05-12T00:50:45.070Z,97.80
2023-05-12T00:53:13.334Z,97.81
2023-05-12T00:55:40.082Z,97.79
2023-05-12T00:58:07.351Z,98.05
2023-05-12T01:00:34.131Z,97.95
2023-05-12T01:03:01.009Z,97.95
2023-05-12T01:05:32.071Z,98.09
2023-05-12T01:08:01.272Z,98.03
2023-05-12T01:10:28.287Z,98.19
2023-05-12T01:12:57.144Z,98.14
2023-05-12T01:15:24.009Z,98.49
2023-05-12T01:17:57.635Z,98.59
2023-05-12T01:20:27.099Z,98.64
2023-05-12T01:22:55.273Z,98.47
2023-05-12T01:25:27.064Z,98.39
2023-05-12T01:27:54.509Z,98.52
2023-05-12T01:30:21.983Z,98.65
2023-05-12T01:32:52.259Z,98.29
2023-05-12T01:35:19.151Z,98.50
2023-05-12T01:37:48.317Z,98.57
2023-05-12T01:40:15.379Z,98.47
2023-05-12T01:42:43.055Z,98.50
2023-05-12T01:45:10.588Z,98.56
2023-05-12T01:47:37.491Z,98.67
2023-05-12T01:50:04.552Z,98.80
2023-05-12T01:52:33.523Z,98.90
2023-05-12T01:55:02.428Z,99.04
2023-05-12T01:57:29.297Z,99.25
2023-05-12T01:59:56.274Z,99.14
2023-05-12T02:02:23.013Z,99.07
2023-05-12T02:04:52.208Z,99.22
2023-05-12T02:07:18.938Z,99.28
2023-05-12T02:09:45.934Z,99.41
2023-05-12T02:12:15.569Z,99.29
2023-05-12T02:14:42.401Z,99.20
2023-05-12T02:17:09.455Z,99.33
2023-05-12T02:19:36.188Z,99.55
2023-05-12T02:22:03.017Z,99.67
2023-05-12T02:24:29.853Z,99.72
2023-05-12T02:26:56.740Z,100.00
2023-05-12T02:29:23.439Z,99.89
2023-05-12T02:31:52.605Z,99.78
2023-05-12T02:34:19.449Z,99.90
2023-05-12T02:36:46.303Z,99.97
2023-05-12T02:39:13.589Z,99.91
2023-05-12T02:41:40.336Z,100.00
2023-05-12T02:44:07.110Z,100.00
2023-05-12T02:46:33.851Z,100.00
2023-05-12T02:49:00.735Z,100.00
2023-05-12T02:51:32.336Z,100.00
2023-05-12T02:53:59.080Z,100.00
2023-05-12T02:56:26.343Z,100.00
2023-05-12T02:58:55.536Z,100.00
2023-05-12T03:01:24.549Z,100.00
2023-05-12T03:03:51.415Z,100.00
2023-05-12T03:06:18.300Z,100.00
2023-05-12T03:08:45.048Z,100.00
2023-05-12T03:11:12.091Z,100.00
2023-05-12T03:13:38.805Z,100.00
2023-05-12T03:16:05.940Z,100.00
2023-05-12T03:18:32.658Z,100.00
2023-05-12T03:20:59.512Z,100.00
2023-05-12T03:23:26.811Z,100.00
2023-05-12T03:25:55.862Z,100.00
2023-05-12T03:28:24.915Z,100.00
2023-05-12T03:30:51.697Z,100.00
2023-05-12T03:33:20.899Z,100.00
2023-05-12T03:35:47.899Z,100.00
2023-05-12T03:38:14.588Z,100.00
2023-05-12T03:40:41.378Z,100.00
2023-05-12T03:43:08.132Z,100.00
2023-05-12T03:45:35.021Z,100.00
2023-05-12T03:48:01.743Z,100.00
2023-05-12T03:50:28.381Z,100.00
2023-05-12T03:52:56.229Z,100.00
2023-05-12T03:55:23.010Z,100.00
2023-05-12T03:57:50.235Z,100.00
2023-05-12T04:00:17.737Z,100.00
2023-05-12T04:02:47.562Z,100.00
2023-05-12T04:05:14.771Z,100.00
2023-05-12T04:07:41.477Z,100.00
2023-05-12T04:10:08.883Z,100.00
2023-05-12T04:12:35.511Z,100.00
2023-05-12T04:15:02.902Z,100.00
2023-05-12T04:17:32.097Z,100.00
2023-05-12T04:19:58.897Z,100.00
2023-05-12T04:22:27.765Z,100.00
2023-05-12T04:24:54.391Z,100.00
2023-05-12T04:27:21.271Z,100.00
2023-05-12T04:29:48.152Z,100.00
2023-05-12T04:32:14.970Z,100.00
2023-05-12T04:34:42.068Z,100.00
2023-05-12T04:37:09.090Z,100.00
2023-05-12T04:39:35.866Z,100.00
2023-05-12T04:42:02.791Z,100.00
2023-05-12T04:44:32.703Z,100.00
2023-05-12T04:47:02.434Z,100.00
2023-05-12T04:49:31.949Z,100.00
2023-05-12T04:51:58.676Z,100.00
2023-05-12T04:54:27.911Z,100.00
2023-05-12T04:56:56.871Z,100.00
2023-05-12T04:59:24.065Z,100.00
2023-05-12T05:01:51.382Z,100.00
2023-05-12T05:04:21.021Z,100.00
2023-05-12T05:06:48.125Z,100.00
2023-05-12T05:09:14.947Z,100.00
2023-05-12T05:11:42.071Z,100.00
2023-05-12T05:14:08.752Z,100.00
2023-05-12T05:16:35.749Z,100.00
2023-05-12T05:19:06.466Z,100.00
2023-05-12T05:21:36.109Z,100.00
2023-05-12T05:24:02.851Z,100.00
2023-05-12T05:26:31.619Z,100.00
2023-05-12T05:28:58.517Z,100.00
2023-05-12T05:31:26.013Z,100.00
2023-05-12T05:33:52.844Z,100.00
2023-05-12T05:36:28.883Z,100.00
2023-05-12T05:38:57.263Z,100.00
2023-05-12T05:41:26.208Z,100.00
2023-05-12T05:43:52.865Z,100.00
2023-05-12T05:46:19.668Z,100.00
2023-05-12T05:48:46.660Z,100.00
2023-05-12T05:51:13.303Z,100.00
2023-05-12T05:53:40.073Z,100.00
2023-05-12T05:56:07.010Z,100.00
2023-05-12T05:58:34.107Z,100.00
2023-05-12T06:01:03.659Z,100.00
2023-05-12T06:03:30.569Z,100.00
2023-05-12T06:05:59.692Z,100.00
2023-05-12T06:08:26.410Z,100.00
2023-05-12T06:10:53.182Z,100.00
2023-05-12T06:13:21.157Z,100.00
2023-05-12T06:15:47.908Z,100.00
2023-05-12T06:18:14.534Z,100.00
2023-05-12T06:20:41.275Z,100.00
2023-05-12T06:23:08.311Z,98.68
2023-05-12T06:25:35.396Z,93.42
2023-05-12T06:28:02.219Z,91.06
2023-05-12T06:30:31.573Z,89.66
2023-05-12T06:32:58.397Z,84.71
2023-05-12T06:35:27.770Z,83.10
2023-05-12T06:37:54.716Z,80.72
2023-05-12T06:40:27.107Z,84.58
2023-05-12T06:42:54.180Z,88.09
2023-05-12T06:45:21.472Z,88.09
2023-05-12T06:47:48.863Z,91.54
2023-05-12T06:50:17.669Z,93.92
2023-05-12T06:52:44.929Z,95.23
2023-05-12T06:55:11.631Z,95.27
2023-05-12T06:57:38.518Z,94.61
2023-05-12T07:00:05.976Z,94.28
2023-05-12T07:02:33.035Z,94.41
2023-05-12T07:04:59.696Z,95.10
2023-05-12T07:07:28.843Z,94.71
2023-05-12T07:09:58.257Z,94.40
2023-05-12T07:12:25.447Z,93.69
2023-05-12T07:14:55.096Z,93.33
2023-05-12T07:20:05.161Z,90.40
2023-05-12T07:22:32.695Z,91.29
2023-05-12T07:25:00.244Z,92.16
2023-05-12T07:27:29.066Z,89.15
2023-05-12T07:29:55.781Z,88.24
2023-05-12T07:32:23.561Z,84.61
2023-05-12T07:34:53.469Z,83.47
2023-05-12T07:37:20.177Z,80.97
2023-05-12T07:39:47.190Z,76.20
2023-05-12T07:42:16.012Z,76.57
2023-05-12T07:44:42.829Z,70.01
2023-05-12T07:47:11.626Z,69.49
2023-05-12T07:49:38.287Z,66.63
2023-05-12T07:52:05.607Z,64.42
2023-05-12T07:54:32.321Z,68.52
2023-05-12T07:56:59.177Z,66.67
2023-05-12T07:59:26.070Z,67.87
2023-05-12T08:01:54.196Z,64.66
2023-05-12T08:04:20.925Z,63.73
2023-05-12T08:06:50.555Z,60.07
2023-05-12T08:09:20.464Z,57.32
2023-05-12T08:11:51.566Z,58.50
2023-05-12T08:14:18.761Z,64.83
2023-05-12T08:16:46.553Z,60.20
2023-05-12T08:19:14.019Z,56.96
2023-05-12T08:21:40.736Z,55.04
2023-05-12T08:24:09.588Z,55.14
2023-05-12T08:26:36.146Z,55.25
2023-05-12T08:29:02.766Z,56.81
2023-05-12T08:31:29.599Z,61.32
2023-05-12T08:34:09.024Z,64.64
2023-05-12T08:36:39.119Z,63.92
2023-05-12T08:39:08.764Z,64.28
2023-05-12T08:41:52.122Z,65.38
2023-05-12T08:44:19.982Z,63.33
2023-05-12T08:46:48.060Z,62.82
2023-05-12T08:49:18.040Z,63.17
2023-05-12T08:51:54.487Z,61.94
2023-05-12T08:54:26.774Z,61.18
2023-05-12T08:59:26.812Z,59.67
2023-05-12T09:01:57.674Z,57.29
2023-05-12T09:04:24.499Z,54.42
2023-05-12T09:06:53.631Z,52.71
2023-05-12T09:09:21.975Z,52.70
2023-05-12T09:11:53.532Z,55.22
2023-05-12T09:14:25.702Z,57.80
2023-05-12T09:17:00.028Z,59.29
2023-05-12T09:19:26.898Z,60.33
2023-05-12T09:21:53.690Z,58.88
2023-05-12T09:24:21.097Z,59.09
2023-05-12T09:26:56.211Z,58.73
2023-05-12T09:29:31.197Z,58.76
2023-05-12T09:32:01.855Z,58.62
2023-05-12T09:34:30.714Z,57.66
2023-05-12T09:36:58.923Z,58.82
2023-05-12T09:39:29.091Z,59.31
2023-05-12T09:41:55.827Z,59.06
2023-05-12T09:44:24.090Z,59.01
2023-05-12T09:46:51.528Z,59.08
2023-05-12T09:49:27.462Z,59.36
2023-05-12T09:51:58.726Z,60.22
2023-05-12T09:54:30.313Z,60.28
2023-05-12T09:57:03.966Z,59.65
2023-05-12T09:59:32.889Z,59.43
2023-05-12T10:02:05.528Z,58.87
2023-05-12T10:04:45.527Z,58.80
2023-05-12T10:07:14.454Z,58.07
2023-05-12T10:09:42.925Z,57.20
2023-05-12T10:12:13.557Z,57.81
2023-05-12T10:14:41.276Z,56.99
2023-05-12T10:17:09.779Z,56.40
2023-05-12T10:19:41.125Z,56.86
2023-05-12T10:22:13.167Z,57.11
2023-05-12T10:24:41.746Z,57.20
2023-05-12T10:27:08.428Z,56.58
2023-05-12T10:29:37.156Z,56.46
2023-05-12T10:32:04.167Z,56.41
2023-05-12T10:34:33.744Z,56.17
2023-05-12T10:37:00.630Z,54.81
2023-05-12T10:39:32.934Z,55.42
2023-05-12T10:42:06.657Z,55.49
2023-05-12T10:44:33.391Z,55.88
2023-05-12T10:47:00.166Z,57.01
2023-05-12T10:49:40.424Z,57.53
2023-05-12T10:52:08.084Z,56.86
2023-05-12T10:54:41.430Z,56.54
2023-05-12T10:57:15.890Z,56.68
2023-05-12T10:59:49.871Z,56.48
2023-05-12T11:02:19.728Z,56.19
2023-05-12T11:04:53.647Z,56.04
2023-05-12T11:07:31.327Z,56.21
2023-05-12T11:10:04.743Z,54.17
2023-05-12T11:12:37.359Z,55.63
2023-05-12T11:15:05.854Z,55.59
2023-05-12T11:17:38.959Z,56.03
2023-05-12T11:20:12.046Z,56.84
2023-05-12T11:22:41.483Z,56.51
2023-05-12T11:25:12.438Z,56.91
2023-05-12T11:27:42.436Z,57.02
2023-05-12T11:30:11.024Z,56.82
2023-05-12T11:32:43.338Z,55.87
2023-05-12T11:35:11.493Z,55.45
2023-05-12T11:37:41.889Z,56.15
2023-05-12T11:40:15.916Z,55.42
2023-05-12T11:42:46.323Z,56.32
2023-05-12T11:45:23.115Z,55.67
2023-05-12T11:47:50.143Z,55.09
2023-05-12T11:50:26.307Z,55.21
2023-05-12T11:52:55.821Z,53.80
2023-05-12T11:55:26.789Z,53.43
2023-05-12T11:58:01.355Z,53.01
2023-05-12T12:00:30.171Z,52.97
2023-05-12T12:03:13.004Z,52.72
2023-05-12T12:05:41.977Z,51.92
2023-05-12T12:08:17.464Z,51.56
2023-05-12T12:10:47.289Z,51.88
2023-05-12T12:13:25.795Z,51.41
2023-05-12T12:15:52.962Z,50.44
2023-05-12T12:18:19.828Z,50.46
2023-05-12T12:20:52.299Z,50.07
2023-05-12T12:23:18.908Z,49.90
2023-05-12T12:25:45.519Z,49.55
2023-05-12T12:28:13.123Z,50.45
2023-05-12T12:30:39.764Z,50.17
2023-05-12T12:33:08.655Z,50.29
2023-05-12T12:35:37.559Z,49.93
2023-05-12T12:38:04.687Z,49.41
2023-05-12T12:40:31.291Z,49.19
2023-05-12T12:42:57.849Z,48.70
2023-05-12T12:45:24.910Z,48.39
2023-05-12T12:47:54.770Z,48.46
2023-05-12T12:50:25.135Z,48.98
2023-05-12T12:52:53.843Z,49.23
2023-05-12T12:55:23.257Z,49.68
2023-05-12T12:57:50.031Z,49.61
2023-05-12T13:00:19.508Z,49.88
2023-05-12T13:02:49.692Z,49.96
2023-05-12T13:05:16.692Z,49.90
2023-05-12T13:07:45.658Z,49.63
2023-05-12T13:10:14.618Z,49.84
2023-05-12T13:12:41.381Z,50.43
2023-05-12T13:15:08.605Z,49.02
2023-05-12T13:17:35.308Z,48.92
2023-05-12T13:20:04.811Z,49.85
2023-05-12T13:22:31.782Z,49.23
2023-05-12T13:24:58.424Z,49.11
2023-05-12T13:27:25.385Z,49.21
2023-05-12T13:29:52.259Z,48.83
2023-05-12T13:32:22.376Z,49.28
2023-05-12T13:34:51.735Z,49.32
2023-05-12T13:37:20.931Z,49.37
2023-05-12T13:39:49.765Z,49.59
2023-05-12T13:42:17.163Z,48.89
2023-05-12T13:44:46.129Z,49.00
2023-05-12T13:47:12.948Z,49.05
2023-05-12T13:49:39.552Z,49.40
2023-05-12T13:52:09.121Z,49.35
2023-05-12T13:54:35.755Z,49.37
2023-05-12T13:57:06.172Z,49.42
2023-05-12T13:59:32.855Z,47.99
2023-05-12T14:01:59.668Z,47.65
2023-05-12T14:04:26.664Z,47.40
2023-05-12T14:06:55.708Z,47.12
2023-05-12T14:09:22.752Z,46.92
2023-05-12T14:11:49.358Z,47.18
2023-05-12T14:14:16.021Z,47.46
2023-05-12T14:16:42.658Z,47.52
2023-05-12T14:19:12.137Z,48.00
2023-05-12T14:21:41.075Z,48.58
2023-05-12T14:24:08.849Z,48.59
2023-05-12T14:26:40.183Z,48.57
2023-05-12T14:29:08.773Z,48.48
2023-05-12T14:31:35.653Z,48.86
2023-05-12T14:34:09.239Z,47.67
2023-05-12T14:36:35.980Z,47.34
2023-05-12T14:39:02.588Z,47.23
2023-05-12T14:41:32.269Z,46.37
2023-05-12T14:43:58.906Z,46.35
2023-05-12T14:46:25.897Z,46.76
2023-05-12T14:48:52.829Z,47.12
2023-05-12T14:51:19.462Z,47.08
2023-05-12T14:53:46.271Z,47.37
2023-05-12T14:56:15.591Z,46.82
2023-05-12T14:58:42.171Z,46.70
2023-05-12T15:01:09.704Z,47.64
2023-05-12T15:03:36.426Z,47.14
2023-05-12T15:06:07.134Z,47.84
2023-05-12T15:08:36.857Z,48.07
2023-05-12T15:11:05.807Z,47.95
2023-05-12T15:13:34.764Z,47.83
2023-05-12T15:16:04.757Z,47.67
2023-05-12T15:18:31.459Z,48.05
2023-05-12T15:20:58.066Z,47.51
2023-05-12T15:23:24.676Z,47.43
2023-05-12T15:25:51.435Z,47.90
2023-05-12T15:28:18.826Z,47.86
2023-05-12T15:30:53.792Z,47.45
2023-05-12T15:33:21.217Z,47.27
2023-05-12T15:35:47.818Z,46.65
2023-05-12T15:38:14.543Z,47.42
2023-05-12T15:40:41.375Z,46.82
2023-05-12T15:43:10.437Z,46.88
2023-05-12T15:45:37.429Z,46.63
2023-05-12T15:48:09.347Z,45.99
2023-05-12T15:50:38.701Z,46.20
2023-05-12T15:53:07.761Z,44.64
2023-05-12T15:55:34.461Z,45.88
2023-05-12T15:58:01.534Z,45.36
2023-05-12T16:00:28.310Z,45.73
2023-05-12T16:02:55.128Z,45.19
2023-05-12T16:05:24.117Z,44.71
2023-05-12T16:07:55.213Z,44.31
2023-05-12T16:10:22.254Z,44.66
2023-05-12T16:12:51.341Z,44.60
2023-05-12T16:15:18.792Z,45.75
2023-05-12T16:17:45.849Z,47.40
2023-05-12T16:20:12.923Z,50.59
2023-05-12T16:22:40.569Z,53.30
2023-05-12T16:25:10.287Z,56.51
2023-05-12T16:27:37.212Z,59.03
2023-05-12T16:30:04.187Z,60.26
2023-05-12T16:32:32.133Z,60.16
2023-05-12T16:34:58.994Z,60.05
2023-05-12T16:37:26.529Z,60.64
2023-05-12T16:39:53.356Z,60.70
2023-05-12T16:42:20.906Z,61.58
2023-05-12T16:44:48.048Z,62.29
2023-05-12T16:47:14.866Z,62.24
2023-05-12T16:49:41.486Z,63.46
2023-05-12T16:52:12.331Z,63.95
2023-05-12T16:54:39.148Z,63.64
2023-05-12T16:57:06.077Z,63.27
2023-05-12T16:59:33.059Z,63.83
2023-05-12T17:02:00.258Z,63.85
2023-05-12T17:04:27.272Z,64.13
2023-05-12T17:06:53.913Z,64.53
2023-05-12T17:09:21.120Z,65.01
2023-05-12T17:11:47.819Z,65.30
2023-05-12T17:14:16.250Z,65.15
2023-05-12T17:16:49.421Z,65.49
2023-05-12T17:19:16.129Z,65.59
2023-05-12T17:21:42.878Z,65.58
2023-05-12T17:24:11.948Z,65.28
2023-05-12T17:26:38.669Z,66.13
2023-05-12T17:29:05.817Z,66.39
2023-05-12T17:31:32.457Z,66.43
2023-05-12T17:33:59.167Z,66.30
2023-05-12T17:36:26.112Z,66.63
2023-05-12T17:38:52.826Z,67.26
2023-05-12T17:41:19.442Z,67.43
2023-05-12T17:43:47.035Z,67.31
2023-05-12T17:46:17.307Z,67.59
2023-05-12T17:48:43.929Z,67.84
2023-05-12T17:51:13.661Z,68.82
2023-05-12T17:53:40.315Z,69.76
2023-05-12T17:56:07.361Z,70.95
2023-05-12T17:58:34.454Z,71.73
2023-05-12T18:01:03.583Z,72.08
2023-05-12T18:03:30.421Z,71.59
2023-05-12T18:05:57.041Z,71.92
2023-05-12T18:08:23.646Z,72.48
2023-05-12T18:10:52.936Z,72.63
2023-05-12T18:13:19.845Z,70.82
2023-05-12T18:15:48.601Z,70.46
2023-05-12T18:18:15.225Z,70.39
2023-05-12T18:20:42.374Z,70.32
2023-05-12T18:23:09.168Z,70.17
2023-05-12T18:25:36.736Z,70.29
2023-05-12T18:28:03.767Z,70.37
2023-05-12T18:30:30.750Z,70.30
2023-05-12T18:32:57.376Z,70.75
2023-05-12T18:35:27.256Z,71.46
2023-05-12T18:37:53.905Z,72.15
2023-05-12T18:40:22.511Z,71.70
2023-05-12T18:42:53.929Z,71.65
2023-05-12T18:45:21.124Z,71.62
2023-05-12T18:47:48.170Z,71.08
2023-05-12T18:50:15.020Z,70.96
2023-05-12T18:52:43.203Z,71.04
2023-05-12T18:55:11.169Z,70.89
2023-05-12T18:57:37.889Z,70.80
2023-05-12T19:00:04.971Z,71.84
2023-05-12T19:02:34.843Z,71.64
2023-05-12T19:05:04.000Z,71.67
2023-05-12T19:07:30.650Z,72.24
2023-05-12T19:09:57.214Z,72.65
2023-05-12T19:12:23.900Z,72.94
2023-05-12T19:14:50.473Z,73.24
2023-05-12T19:17:17.870Z,73.12
2023-05-12T19:19:44.617Z,74.67
2023-05-12T19:22:11.211Z,74.26
2023-05-12T19:24:38.063Z,73.87
2023-05-12T19:27:04.907Z,74.81
2023-05-12T19:29:33.736Z,74.23
2023-05-12T19:32:00.416Z,74.26
2023-05-12T19:34:29.525Z,74.26
2023-05-12T19:36:58.340Z,74.13
2023-05-12T19:39:25.005Z,74.27
2023-05-12T19:41:51.842Z,74.65
2023-05-12T19:44:18.429Z,74.72
2023-05-12T19:46:47.136Z,74.70
2023-05-12T19:49:14.767Z,75.85
2023-05-12T19:51:43.800Z,75.18
2023-05-12T19:54:10.435Z,75.20
2023-05-12T19:56:37.559Z,74.90
2023-05-12T19:59:04.216Z,74.81
2023-05-12T20:01:31.181Z,74.82
2023-05-12T20:03:57.882Z,74.86
2023-05-12T20:06:25.041Z,74.68
2023-05-12T20:08:52.482Z,74.62
2023-05-12T20:11:21.453Z,74.65
2023-05-12T20:13:48.223Z,74.59
2023-05-12T20:16:15.287Z,74.60
2023-05-12T20:18:42.108Z,74.79
2023-05-12T20:21:08.862Z,74.96
2023-05-12T20:23:35.748Z,75.32
2023-05-12T20:26:02.626Z,75.28
2023-05-12T20:28:29.807Z,75.43
2023-05-12T20:30:56.782Z,75.75
2023-05-12T20:33:24.220Z,75.73
2023-05-12T20:35:51.166Z,76.03
2023-05-12T20:38:18.381Z,76.35
2023-05-12T20:40:45.354Z,76.36
2023-05-12T20:43:14.683Z,76.61
2023-05-12T20:45:41.668Z,76.52
2023-05-12T20:48:11.662Z,76.61
2023-05-12T20:50:39.865Z,76.92
2023-05-12T20:53:07.248Z,77.06
2023-05-12T20:55:34.378Z,77.10
2023-05-12T20:58:02.012Z,77.57
2023-05-12T21:00:31.643Z,77.44
2023-05-12T21:02:59.827Z,77.13
2023-05-12T21:05:29.335Z,77.08
2023-05-12T21:07:58.603Z,76.83
2023-05-12T21:10:27.593Z,76.89
2023-05-12T21:12:56.795Z,76.63
2023-05-12T21:15:24.822Z,76.46
2023-05-12T21:17:53.515Z,76.46
2023-05-12T21:20:20.851Z,76.36
2023-05-12T21:22:48.078Z,76.63
2023-05-12T21:25:15.139Z,76.75
2023-05-12T21:27:42.080Z,76.63
2023-05-12T21:30:11.053Z,76.72
2023-05-12T21:32:39.762Z,76.61
2023-05-12T21:35:08.091Z,76.67
2023-05-12T21:37:35.264Z,76.88
2023-05-12T21:40:02.647Z,76.15
2023-05-12T21:42:29.676Z,76.56
2023-05-12T21:44:59.285Z,76.79
2023-05-12T21:47:29.106Z,76.84
2023-05-12T21:50:01.107Z,76.99
2023-05-12T21:52:30.450Z,77.31
2023-05-12T21:54:57.657Z,77.38
2023-05-12T21:57:24.787Z,77.42
2023-05-12T21:59:52.098Z,77.48
2023-05-12T22:02:19.685Z,77.68
2023-05-12T22:04:49.670Z,77.95
2023-05-12T22:07:16.759Z,77.76
2023-05-12T22:09:44.759Z,77.54
2023-05-12T22:12:21.956Z,77.70
2023-05-12T22:14:51.249Z,77.58
2023-05-12T22:17:18.432Z,77.64
2023-05-12T22:19:45.456Z,77.43
2023-05-12T22:22:12.803Z,77.36
2023-05-12T22:24:42.380Z,77.39
2023-05-12T22:27:13.419Z,77.40
2023-05-12T22:29:40.515Z,77.24
2023-05-12T22:32:12.405Z,77.14
2023-05-12T22:34:44.418Z,77.14
2023-05-12T22:37:14.341Z,77.25
2023-05-12T22:39:50.246Z,77.27
2023-05-12T22:42:20.744Z,76.99
2023-05-12T22:44:47.801Z,76.91
2023-05-12T22:47:14.899Z,76.85
2023-05-12T22:49:42.114Z,76.84
2023-05-12T22:52:13.911Z,76.86
2023-05-12T22:54:40.788Z,76.86
2023-05-12T22:57:10.825Z,76.89
2023-05-12T22:59:38.295Z,76.70
2023-05-12T23:02:08.214Z,76.78
2023-05-12T23:04:35.528Z,76.85
2023-05-12T23:07:03.151Z,76.77
2023-05-12T23:09:32.580Z,76.53
2023-05-12T23:12:01.194Z,76.55
2023-05-12T23:14:30.376Z,76.17
2023-05-12T23:17:01.626Z,76.18
2023-05-12T23:19:32.031Z,76.17
2023-05-12T23:21:59.160Z,76.12
2023-05-12T23:24:28.632Z,76.33
2023-05-12T23:26:55.819Z,76.18
2023-05-12T23:29:27.440Z,76.35
2023-05-12T23:31:57.946Z,75.97
2023-05-12T23:34:25.017Z,76.48
2023-05-12T23:36:52.341Z,76.32
2023-05-12T23:39:28.890Z,76.41
2023-05-12T23:41:59.628Z,76.58
2023-05-12T23:44:26.972Z,76.33
2023-05-12T23:46:54.579Z,76.41
2023-05-12T23:49:23.851Z,76.08
2023-05-12T23:51:53.512Z,76.34
2023-05-12T23:54:20.643Z,76.21
2023-05-12T23:56:51.024Z,76.43
2023-05-12T23:59:19.248Z,76.47
